Gallant, Alabama
Current Conditions -  °F | °C
As of 8:35 AM on Thursday 27 Nov 2014 (Local Time) from KGAD Reporting Station
Overcast Overcast  
Wind Chill: 36°   Ceiling: 5000
Heat Index: 41°   Visibility: 10mi
Dew Point: 30°   Wind: 7mph
Humidity: 65%   Direction: 280°W
Pressure: 30.33"   Gusts: NA
Location:  34°N, 86.25°W
Report Text: KGAD 271435Z 28006KT 10SM FEW024 FEW030 OVC050 05/M01 A3033 RMK AO1
Loading
Personal Weather Stations






























Interactive Weather Map New forecast layout! Learn more

10-Day Weather Forecast

Advertisements
Track Severe Weather on mobile